Time;durP1;ratioP1;P1;durP2;ratioP2;P2;SDS_P1;SDS_P2;PMS_P1;PMS_P2;Temp;Humidity;BMP_temperature;BMP_pressure;BME280_temperature;BME280_humidity;BME280_pressure;Samples;Min_cycle;Max_cycle;Signal;HPM_P1;HPM_P2
2022/04/15 00:01:15;;;;;;;14.50;12.40;;;;;;;11.75;98.74;100512.75;10180985;29;20052;-77
2022/04/15 00:06:18;;;;;;;12.23;11.43;;;;;;;11.65;100.00;100510.44;10166201;29;20062;-77
2022/04/15 00:11:20;;;;;;;12.23;11.43;;;;;;;11.68;100.00;100513.84;10179595;29;20467;-77
2022/04/15 00:16:22;;;;;;;13.73;12.63;;;;;;;11.74;99.13;100497.00;10179987;29;20062;-77
2022/04/15 00:21:24;;;;;;;12.40;11.50;;;;;;;11.84;99.13;100496.72;10184624;29;20071;-77
2022/04/15 00:26:25;;;;;;;14.25;13.00;;;;;;;11.84;99.11;100495.84;10181261;29;20044;-74
2022/04/15 00:31:27;;;;;;;13.73;12.63;;;;;;;11.93;97.99;100487.69;10180870;29;20044;-75
2022/04/15 00:36:29;;;;;;;12.77;11.77;;;;;;;11.99;95.55;100490.13;10180149;29;20042;-74
2022/04/15 00:41:31;;;;;;;12.32;11.32;;;;;;;12.16;94.25;100486.97;10178229;29;20063;-74
2022/04/15 00:46:33;;;;;;;12.73;11.73;;;;;;;12.15;93.66;100489.66;10177352;29;20079;-74
2022/04/15 00:51:35;;;;;;;12.77;11.77;;;;;;;12.20;93.21;100487.75;10178763;29;20059;-74
2022/04/15 00:56:40;;;;;;;14.73;13.52;;;;;;;12.18;93.56;100484.31;10159672;29;20067;-73
2022/04/15 01:01:43;;;;;;;14.75;13.57;;;;;;;12.06;94.19;100493.44;10177764;29;20104;-73
2022/04/15 01:06:47;;;;;;;16.38;14.70;;;;;;;11.95;95.07;100495.53;10178775;29;20057;-73
2022/04/15 01:11:51;;;;;;;15.23;14.02;;;;;;;11.74;96.80;100503.13;10183623;29;20048;-73
2022/04/15 01:16:53;;;;;;;16.67;15.15;;;;;;;11.58;98.72;100510.59;10187208;29;20494;-73
2022/04/15 01:21:59;;;;;;;17.33;15.93;;;;;;;11.56;99.15;100516.84;10185208;29;20056;-74
2022/04/15 01:27:01;;;;;;;17.75;16.30;;;;;;;11.81;97.55;100511.72;10169535;29;20104;-74
2022/04/15 01:32:04;;;;;;;19.67;18.08;;;;;;;11.61;98.47;100507.03;10201038;23;20040;-76
2022/04/15 01:37:06;;;;;;;19.00;17.58;;;;;;;12.00;95.57;100505.03;10228211;29;20040;-75
2022/04/15 01:42:11;;;;;;;21.42;19.83;;;;;;;11.99;95.71;100499.78;10225996;29;20462;-76
2022/04/15 01:47:12;;;;;;;23.02;20.80;;;;;;;11.95;96.02;100504.28;10207509;29;20099;-75
2022/04/15 01:52:14;;;;;;;22.02;20.17;;;;;;;11.89;96.45;100501.84;10223317;29;20044;-75
2022/04/15 01:57:16;;;;;;;23.20;21.33;;;;;;;11.88;97.18;100499.28;10221332;29;20048;-75
2022/04/15 02:02:18;;;;;;;26.30;23.83;;;;;;;11.77;97.40;100500.41;10223112;29;20498;-75
2022/04/15 02:07:19;;;;;;;27.13;24.48;;;;;;;11.68;98.89;100497.16;10224625;29;20055;-75
2022/04/15 02:12:21;;;;;;;27.70;24.83;;;;;;;11.74;98.09;100486.47;10223244;29;20465;-75
2022/04/15 02:17:22;;;;;;;28.40;25.65;;;;;;;11.92;97.03;100493.00;10224639;29;20091;-75
2022/04/15 02:22:24;;;;;;;28.15;25.60;;;;;;;11.92;97.36;100501.78;10222421;29;20047;-75
2022/04/15 02:27:26;;;;;;;29.25;26.70;;;;;;;11.99;96.35;100492.75;10222605;29;20114;-74
2022/04/15 02:32:30;;;;;;;28.83;26.30;;;;;;;11.95;95.96;100491.13;10221894;29;20040;-74
2022/04/15 02:37:32;;;;;;;31.60;28.27;;;;;;;11.69;97.53;100501.56;10221488;29;20052;-75
2022/04/15 02:42:35;;;;;;;30.52;27.30;;;;;;;11.82;96.41;100502.88;10222384;29;20060;-74
2022/04/15 02:47:36;;;;;;;30.70;27.45;;;;;;;11.83;96.13;100488.88;10221765;29;20058;-75
2022/04/15 02:52:38;;;;;;;28.27;25.92;;;;;;;11.70;96.45;100495.38;10223240;29;20055;-75
2022/04/15 02:57:40;;;;;;;32.45;28.98;;;;;;;11.52;96.89;100500.25;10224464;29;20044;-74
2022/04/15 03:02:41;;;;;;;31.15;28.33;;;;;;;11.49;96.78;100495.06;10219647;29;20048;-74
2022/04/15 03:07:43;;;;;;;34.10;29.73;;;;;;;11.52;97.14;100491.50;10223053;29;20434;-74
2022/04/15 03:12:45;;;;;;;35.60;30.58;;;;;;;11.41;97.13;100490.91;10225113;29;20056;-74
2022/04/15 03:17:47;;;;;;;32.95;29.33;;;;;;;11.52;96.21;100504.66;10224325;29;20036;-75
2022/04/15 03:22:48;;;;;;;33.55;29.83;;;;;;;11.30;96.50;100505.25;10224276;29;20537;-74
2022/04/15 03:27:50;;;;;;;34.15;30.20;;;;;;;11.22;97.77;100511.63;10224244;29;20051;-74
2022/04/15 03:32:52;;;;;;;34.50;30.83;;;;;;;11.26;96.94;100508.00;10223425;29;20114;-74
2022/04/15 03:37:54;;;;;;;34.20;30.65;;;;;;;11.29;97.18;100508.78;10221194;29;20043;-74
2022/04/15 03:43:04;;;;;;;35.05;31.50;;;;;;;11.24;96.82;100512.44;10220456;29;20094;-75
2022/04/15 03:48:07;;;;;;;35.63;32.13;;;;;;;11.35;96.93;100500.72;10220351;29;20146;-76
2022/04/15 03:53:08;;;;;;;35.47;31.33;;;;;;;11.37;96.65;100501.53;10219309;29;20051;-75
2022/04/15 03:58:13;;;;;;;35.97;32.10;;;;;;;11.30;97.27;100509.66;10219627;29;20055;-75
2022/04/15 04:03:15;;;;;;;39.88;34.78;;;;;;;11.39;96.53;100498.00;10220896;29;20048;-75
2022/04/15 04:08:17;;;;;;;43.30;35.08;;;;;;;11.20;97.28;100509.03;10223676;29;20078;-75
2022/04/15 04:13:22;;;;;;;37.78;34.05;;;;;;;11.30;97.45;100515.78;10222621;29;20520;-75
2022/04/15 04:18:24;;;;;;;45.63;34.13;;;;;;;11.36;96.46;100514.75;10221814;29;20044;-75
2022/04/15 04:23:26;;;;;;;40.05;35.00;;;;;;;11.29;97.31;100502.66;10221460;29;20106;-75
2022/04/15 04:28:27;;;;;;;43.10;36.67;;;;;;;11.12;98.40;100503.13;10223293;29;20056;-75
2022/04/15 04:33:29;;;;;;;42.28;36.13;;;;;;;11.27;97.09;100520.25;10222215;29;20051;-75
2022/04/15 04:38:31;;;;;;;44.22;38.38;;;;;;;11.15;98.03;100525.84;10223079;29;20044;-75
2022/04/15 04:43:33;;;;;;;50.65;37.95;;;;;;;11.25;97.06;100522.06;10222940;29;20055;-74
2022/04/15 04:48:34;;;;;;;44.78;37.92;;;;;;;11.46;96.18;100533.78;10228152;29;20458;-74
2022/04/15 04:53:36;;;;;;;52.67;41.25;;;;;;;11.17;97.46;100531.94;10231320;29;20043;-75
2022/04/15 04:58:37;;;;;;;49.38;39.65;;;;;;;11.44;95.69;100533.81;10229367;29;20445;-75
2022/04/15 05:03:39;;;;;;;51.30;41.25;;;;;;;11.10;97.85;100545.22;10232942;29;20059;-74
2022/04/15 05:08:40;;;;;;;48.08;39.85;;;;;;;11.28;96.79;100564.09;10230287;29;20048;-75
2022/04/15 05:13:42;;;;;;;51.67;40.78;;;;;;;11.04;98.08;100561.19;10233108;29;20126;-75
2022/04/15 05:18:44;;;;;;;42.45;37.88;;;;;;;11.25;96.39;100575.56;10230278;29;20577;-75
2022/04/15 05:23:45;;;;;;;43.35;36.15;;;;;;;10.98;97.46;100581.50;10228672;29;20055;-75
2022/04/15 05:28:47;;;;;;;40.50;36.30;;;;;;;10.80;98.96;100581.09;10229164;29;20136;-75
2022/04/15 05:33:49;;;;;;;44.22;35.45;;;;;;;10.78;98.50;100584.63;10230931;29;20047;-74
2022/04/15 05:38:50;;;;;;;34.45;31.05;;;;;;;10.77;97.95;100596.06;10229358;29;20043;-74
2022/04/15 05:43:52;;;;;;;31.35;28.50;;;;;;;10.71;96.48;100606.69;10227540;29;20071;-74
2022/04/15 05:48:53;;;;;;;26.08;23.77;;;;;;;10.69;94.67;100605.88;10226543;29;20055;-74
2022/04/15 05:53:55;;;;;;;23.88;22.08;;;;;;;10.40;94.21;100624.94;10228537;29;20138;-74
2022/04/15 05:58:56;;;;;;;21.17;19.65;;;;;;;10.30;92.81;100619.00;10229223;29;20119;-73
2022/04/15 06:03:58;;;;;;;18.05;16.50;;;;;;;10.34;91.01;100636.44;10229242;29;20040;-74
2022/04/15 06:09:00;;;;;;;18.58;17.17;;;;;;;10.27;91.22;100640.97;10228850;29;20040;-74
2022/04/15 06:14:03;;;;;;;17.00;15.77;;;;;;;9.99;92.21;100650.25;10228392;29;20478;-74
2022/04/15 06:19:05;;;;;;;17.05;15.80;;;;;;;9.77;92.79;100658.53;10227652;29;20044;-75
2022/04/15 06:24:24;;;;;;;18.27;16.60;;;;;;;9.77;92.95;100663.78;10226049;29;20110;-73
2022/04/15 06:29:25;;;;;;;17.20;16.00;;;;;;;9.63;93.10;100678.06;10226658;29;20411;-73
2022/04/15 06:34:27;;;;;;;16.30;15.18;;;;;;;9.40;93.81;100676.72;10226640;29;20074;-72
2022/04/15 06:39:28;;;;;;;18.52;16.05;;;;;;;9.38;94.12;100685.47;10225809;29;20059;-73
2022/04/15 06:44:30;;;;;;;15.43;14.35;;;;;;;9.45;94.82;100695.84;10224240;29;20429;-73
2022/04/15 06:49:31;;;;;;;13.63;12.68;;;;;;;9.49;92.87;100680.94;10223777;29;20052;-73
2022/04/15 06:54:34;;;;;;;15.38;14.30;;;;;;;9.51;93.03;100694.88;10223112;29;20103;-73
2022/04/15 06:59:36;;;;;;;14.90;13.63;;;;;;;9.31;92.28;100701.34;10224077;29;20497;-73
2022/04/15 07:04:37;;;;;;;15.52;13.93;;;;;;;9.29;92.48;100697.00;10224904;29;20047;-74
2022/04/15 07:09:39;;;;;;;13.85;12.65;;;;;;;9.26;91.47;100697.94;10223329;29;20044;-74
2022/04/15 07:14:40;;;;;;;13.07;12.00;;;;;;;9.06;92.73;100707.84;10225042;29;20462;-74
2022/04/15 07:19:42;;;;;;;12.80;11.80;;;;;;;9.02;91.40;100714.03;10225337;29;20059;-74
2022/04/15 07:24:44;;;;;;;11.38;10.48;;;;;;;8.97;90.61;100708.84;10224806;29;20059;-74
2022/04/15 07:29:47;;;;;;;10.63;9.57;;;;;;;9.00;89.86;100713.19;10225965;23;20498;-70
2022/04/15 07:34:49;;;;;;;11.43;10.52;;;;;;;8.93;90.10;100711.53;10215480;29;20043;-69
2022/04/15 07:39:51;;;;;;;9.90;9.10;;;;;;;8.88;88.12;100719.47;10215029;29;20410;-71
2022/04/15 07:44:53;;;;;;;8.88;8.07;;;;;;;8.77;89.31;100726.63;10215234;29;20096;-70
2022/04/15 07:49:54;;;;;;;7.63;7.03;;;;;;;8.77;88.74;100732.72;10213902;29;20060;-71
2022/04/15 07:54:56;;;;;;;8.80;8.00;;;;;;;8.85;88.04;100737.84;10215524;29;20112;-72
2022/04/15 07:59:57;;;;;;;8.75;8.05;;;;;;;8.88;87.05;100735.19;10215277;29;20063;-71
2022/04/15 08:04:59;;;;;;;9.27;8.57;;;;;;;8.74;88.74;100742.38;10214498;29;20055;-72
2022/04/15 08:10:01;;;;;;;10.13;9.35;;;;;;;8.71;89.38;100747.66;10214220;29;20107;-71
2022/04/15 08:15:03;;;;;;;9.23;8.45;;;;;;;8.72;88.84;100744.13;10197130;29;20465;-71
2022/04/15 08:20:06;;;;;;;9.10;8.43;;;;;;;8.89;87.49;100755.28;10214698;29;20044;-71
2022/04/15 08:25:08;;;;;;;8.82;8.02;;;;;;;9.06;86.46;100755.03;10213568;29;20046;-71
2022/04/15 08:30:09;;;;;;;7.82;7.22;;;;;;;9.13;84.92;100759.31;10212455;29;20111;-71
2022/04/15 08:35:11;;;;;;;6.68;6.15;;;;;;;9.15;83.59;100762.78;10214067;29;20391;-70
2022/04/15 08:40:13;;;;;;;8.23;6.32;;;;;;;9.23;83.05;100773.16;10212056;29;20079;-71
2022/04/15 08:45:16;;;;;;;7.13;6.57;;;;;;;9.11;81.94;100774.19;10213336;29;20095;-71
2022/04/15 08:50:17;;;;;;;5.95;5.35;;;;;;;9.15;80.13;100773.28;10211721;29;20048;-71
2022/04/15 08:55:21;;;;;;;5.18;4.78;;;;;;;9.14;80.61;100783.81;10211564;29;20064;-71
2022/04/15 09:00:25;;;;;;;5.07;4.68;;;;;;;9.13;80.26;100784.69;10213182;29;20056;-72
2022/04/15 09:05:28;;;;;;;6.05;5.57;;;;;;;9.07;80.36;100793.50;10213591;29;20047;-72
2022/04/15 09:10:31;;;;;;;5.78;5.38;;;;;;;8.91;81.48;100795.47;10212682;29;20410;-72
2022/04/15 09:15:33;;;;;;;5.25;4.85;;;;;;;8.97;82.62;100799.75;10213300;29;20115;-72
2022/04/15 09:20:34;;;;;;;5.00;4.60;;;;;;;9.19;80.68;100803.81;10195386;29;20051;-72
2022/04/15 09:25:38;;;;;;;4.43;4.13;;;;;;;9.13;79.56;100809.16;10212321;29;20055;-72
2022/04/15 09:30:40;;;;;;;4.50;4.10;;;;;;;8.87;78.82;100816.50;10212903;29;20502;-72
2022/04/15 09:35:48;;;;;;;3.65;3.35;;;;;;;8.80;79.30;100813.06;10217968;29;20405;-71
2022/04/15 09:40:50;;;;;;;5.10;3.42;;;;;;;8.85;77.92;100819.13;10218496;29;20080;-71
2022/04/15 09:45:52;;;;;;;3.47;2.80;;;;;;;9.00;78.12;100821.56;10219792;29;20055;-71
2022/04/15 09:50:55;;;;;;;1.90;1.80;;;;;;;9.20;75.65;100823.91;10221481;29;20048;-71
2022/04/15 09:55:58;;;;;;;3.22;2.10;;;;;;;9.09;75.97;100825.81;10240891;29;20497;-71
2022/04/15 10:01:02;;;;;;;1.88;1.65;;;;;;;9.18;74.80;100823.06;10240992;29;20102;-72
2022/04/15 10:06:04;;;;;;;1.95;1.70;;;;;;;9.12;75.78;100827.53;10258855;29;20043;-72
2022/04/15 10:11:25;;;;;;;2.28;1.55;;;;;;;9.00;75.03;100834.69;10258777;29;20047;-69
2022/04/15 10:16:28;;;;;;;1.95;1.58;;;;;;;9.01;73.17;100841.66;10258887;29;20106;-70
2022/04/15 10:21:32;;;;;;;2.50;1.60;;;;;;;8.83;74.84;100844.50;10241382;29;20043;-70
2022/04/15 10:26:39;;;;;;;3.00;1.63;;;;;;;8.74;76.73;100842.00;10242324;29;20468;-71
2022/04/15 10:31:46;;;;;;;4.67;2.23;;;;;;;8.82;77.06;100838.38;10258317;29;20075;-72
2022/04/15 10:36:49;;;;;;;;;;;;;;;8.90;76.59;100845.28;10260445;29;20051;-72
2022/04/15 10:42:01;;;;;;;1.63;1.52;;;;;;;8.77;75.85;100840.19;10259424;29;19922;-70
2022/04/15 10:47:29;;;;;;;2.35;1.88;;;;;;;8.78;75.91;100841.94;10239269;29;20527;-70
2022/04/15 10:52:34;;;;;;;2.10;1.90;;;;;;;9.09;75.24;100833.69;10240275;29;20516;-71
2022/04/15 10:57:40;;;;;;;3.17;2.05;;;;;;;9.34;75.51;100836.84;10257993;29;20102;-71
2022/04/15 11:02:50;;;;;;;1.70;1.60;;;;;;;9.38;75.74;100835.03;10257490;29;20060;-71
2022/04/15 11:08:04;;;;;;;2.38;2.17;;;;;;;9.60;72.65;100839.94;10240153;29;20099;-72
2022/04/15 11:13:29;;;;;;;1.65;1.50;;;;;;;9.30;73.08;100845.66;10256658;29;20051;-71
2022/04/15 11:18:48;;;;;;;2.05;1.95;;;;;;;9.34;73.21;100848.22;10246227;29;20047;-70
2022/04/15 11:24:00;;;;;;;2.13;1.70;;;;;;;9.28;74.07;100855.28;10240405;29;20135;-71
2022/04/15 11:29:04;;;;;;;3.78;2.28;;;;;;;9.68;73.07;100845.09;10239631;29;20071;-71
2022/04/15 11:34:17;;;;;;;1.90;1.80;;;;;;;10.13;72.69;100842.63;10256193;29;20094;-71
2022/04/15 11:39:21;;;;;;;1.77;1.40;;;;;;;10.21;69.90;100851.25;10222866;29;20051;-71
2022/04/15 11:44:31;;;;;;;2.15;1.60;;;;;;;10.20;70.11;100851.28;10255263;29;20058;-69
2022/04/15 11:49:33;;;;;;;1.50;1.40;;;;;;;10.20;68.12;100848.66;10255785;29;20043;-71
2022/04/15 11:54:38;;;;;;;2.63;1.77;;;;;;;10.53;69.45;100834.06;10255306;28;20504;-70
2022/04/15 11:59:41;;;;;;;1.70;1.60;;;;;;;11.00;68.12;100837.53;10254289;29;20039;-69
2022/04/15 12:04:54;;;;;;;2.35;1.45;;;;;;;10.60;67.37;100843.56;10255365;29;20039;-72
2022/04/15 12:09:56;;;;;;;1.83;1.40;;;;;;;10.73;66.66;100839.81;10254922;29;20050;-69
2022/04/15 12:15:01;;;;;;;1.83;1.45;;;;;;;10.60;67.88;100844.44;10254771;29;20050;-69
2022/04/15 12:20:04;;;;;;;1.63;1.02;;;;;;;10.24;66.84;100855.59;10237304;29;20054;-70
2022/04/15 12:25:16;;;;;;;1.75;1.13;;;;;;;9.94;67.75;100863.06;10236115;29;20465;-69
2022/04/15 12:30:39;;;;;;;1.50;1.40;;;;;;;9.76;70.70;100855.50;10237543;29;20039;-71
2022/04/15 12:36:03;;;;;;;2.72;1.98;;;;;;;9.75;71.06;100864.25;10254386;29;20051;-70
2022/04/15 12:41:12;;;;;;;3.17;2.80;;;;;;;9.72;72.49;100869.56;10254638;29;20047;-70
2022/04/15 12:46:17;;;;;;;2.72;2.53;;;;;;;9.78;72.86;100861.56;10236502;29;20051;-71
2022/04/15 12:51:19;;;;;;;3.05;2.55;;;;;;;10.09;70.85;100852.34;10236886;29;20434;-70
2022/04/15 12:56:23;;;;;;;3.20;2.90;;;;;;;9.98;72.15;100853.41;10236605;29;20055;-71
2022/04/15 13:01:25;;;;;;;3.08;2.85;;;;;;;10.09;71.75;100847.09;10235049;29;20044;-68
2022/04/15 13:06:27;;;;;;;3.83;3.08;;;;;;;10.23;72.96;100838.09;10252611;28;20047;-69
2022/04/15 13:11:28;;;;;;;3.53;2.30;;;;;;;10.39;69.58;100838.72;10242415;29;20051;-69
2022/04/15 13:16:30;;;;;;;3.22;2.40;;;;;;;10.57;70.13;100839.22;10243213;29;20058;-69
2022/04/15 13:21:32;;;;;;;2.70;2.42;;;;;;;10.75;68.07;100835.38;10260268;29;20070;-69
2022/04/15 13:26:33;;;;;;;3.75;2.67;;;;;;;10.52;68.88;100837.59;10241997;29;20122;-68
2022/04/15 13:31:36;;;;;;;3.15;2.85;;;;;;;10.65;68.72;100846.09;10259306;23;20051;-72
2022/04/15 13:36:38;;;;;;;2.95;2.75;;;;;;;10.40;69.49;100838.66;10231565;29;20062;-74
2022/04/15 13:41:40;;;;;;;3.30;3.10;;;;;;;10.43;71.58;100830.72;10233202;29;20119;-74
2022/04/15 13:46:42;;;;;;;3.05;2.85;;;;;;;10.44;70.36;100835.09;10215771;29;20052;-73
2022/04/15 13:51:49;;;;;;;3.33;3.10;;;;;;;10.41;71.75;100842.19;10216007;29;20135;-73
2022/04/15 13:56:51;;;;;;;3.13;2.92;;;;;;;10.20;72.50;100849.50;10196767;29;20059;-74
2022/04/15 14:01:53;;;;;;;2.67;2.47;;;;;;;10.25;72.72;100849.47;10212617;29;20040;-73
2022/04/15 14:06:55;;;;;;;3.75;2.63;;;;;;;9.94;73.15;100863.06;10197918;29;20138;-73
2022/04/15 14:11:56;;;;;;;4.10;3.80;;;;;;;9.65;76.11;100863.53;10214177;29;20050;-72
2022/04/15 14:16:58;;;;;;;4.30;4.00;;;;;;;9.40;79.24;100876.13;10213580;29;20058;-73
2022/04/15 14:21:59;;;;;;;5.63;5.22;;;;;;;9.18;82.58;100890.41;10228806;29;20439;-72
2022/04/15 14:27:01;;;;;;;7.07;6.47;;;;;;;8.91;87.24;100895.09;10228183;29;20494;-72
2022/04/15 14:32:03;;;;;;;7.32;6.82;;;;;;;8.81;90.26;100896.09;10228604;29;20076;-72
2022/04/15 14:37:05;;;;;;;9.30;8.70;;;;;;;8.74;93.91;100889.16;10229502;29;20048;-72
2022/04/15 14:42:06;;;;;;;8.85;8.25;;;;;;;8.74;94.29;100892.66;10230758;29;20051;-73
2022/04/15 14:47:08;;;;;;;10.02;9.32;;;;;;;8.72;94.17;100893.53;10228615;29;20056;-73
2022/04/15 14:52:10;;;;;;;8.90;8.30;;;;;;;8.72;93.79;100893.53;10228581;29;20048;-73
2022/04/15 14:57:13;;;;;;;8.45;7.85;;;;;;;8.86;94.32;100889.03;10211957;29;20050;-73
2022/04/15 15:02:15;;;;;;;9.45;8.85;;;;;;;8.97;94.16;100894.16;10211464;29;20054;-74
2022/04/15 15:07:16;;;;;;;9.75;9.13;;;;;;;8.84;94.28;100896.03;10194627;29;20062;-74
2022/04/15 15:12:18;;;;;;;10.63;9.82;;;;;;;8.72;95.35;100896.16;10207341;29;20047;-72
2022/04/15 15:17:20;;;;;;;10.15;9.52;;;;;;;8.73;96.23;100897.94;10227458;29;20107;-73
2022/04/15 15:22:21;;;;;;;12.35;11.35;;;;;;;8.63;96.69;100902.38;10223509;29;20085;-74
2022/04/15 15:32:43;;;;;;;13.05;12.15;;;;;;;8.62;98.90;100905.00;10219296;29;20107;-76
2022/04/15 15:37:45;;;;;;;15.00;13.90;;;;;;;8.63;100.00;100906.75;10219187;29;20062;-74
2022/04/15 15:42:47;;;;;;;13.93;12.82;;;;;;;8.51;100.00;100913.84;10210873;29;20140;-74
2022/04/15 15:47:48;;;;;;;13.57;12.57;;;;;;;8.48;100.00;100913.88;10227881;29;20052;-74
2022/04/15 15:52:50;;;;;;;13.32;12.32;;;;;;;8.55;100.00;100914.69;10229046;29;20043;-74
2022/04/15 15:57:53;;;;;;;12.00;11.10;;;;;;;8.53;100.00;100914.69;10227964;29;20122;-73
2022/04/15 16:02:54;;;;;;;12.60;11.32;;;;;;;8.53;100.00;100924.31;10208830;29;20044;-75
2022/04/15 16:07:57;;;;;;;11.50;10.70;;;;;;;8.41;100.00;100922.69;10225510;29;20046;-75
2022/04/15 16:13:00;;;;;;;12.20;11.20;;;;;;;8.43;100.00;100925.28;10223837;29;20126;-74
2022/04/15 16:18:03;;;;;;;12.75;11.77;;;;;;;8.48;100.00;100921.72;10223649;29;20489;-76
2022/04/15 16:23:05;;;;;;;11.18;10.23;;;;;;;8.52;100.00;100925.19;10206800;29;20057;-74
2022/04/15 16:28:08;;;;;;;13.20;12.20;;;;;;;8.28;100.00;100934.13;10223142;29;20046;-74
2022/04/15 16:33:09;;;;;;;12.27;11.38;;;;;;;8.20;100.00;100942.03;10222658;29;20048;-74
2022/04/15 16:38:11;;;;;;;9.70;9.00;;;;;;;8.41;100.00;100941.03;10221709;29;20051;-74
2022/04/15 16:43:13;;;;;;;11.48;10.68;;;;;;;8.44;100.00;100938.34;10225140;29;20502;-74
2022/04/15 16:48:14;;;;;;;10.13;9.27;;;;;;;8.43;100.00;100939.25;10230402;29;20040;-73
2022/04/15 16:53:16;;;;;;;9.70;9.00;;;;;;;8.24;100.00;100954.22;10215648;29;20529;-73
2022/04/15 17:03:41;;;;;;;11.57;10.65;;;;;;;8.31;100.00;100953.28;10230413;29;20055;-74
2022/04/15 17:08:42;;;;;;;11.60;10.85;;;;;;;8.45;100.00;100965.44;10212254;29;20127;-74
2022/04/15 17:13:46;;;;;;;11.07;10.27;;;;;;;8.46;100.00;100956.72;10229493;29;20058;-73
2022/04/15 17:18:48;;;;;;;10.00;9.20;;;;;;;8.59;100.00;100963.59;10212715;29;20095;-74
2022/04/15 17:23:51;;;;;;;10.50;9.68;;;;;;;8.45;100.00;100966.28;10212146;29;20055;-75
2022/04/15 17:28:53;;;;;;;9.35;8.65;;;;;;;8.47;100.00;100967.16;10227768;29;20040;-74
2022/04/15 17:33:54;;;;;;;11.48;10.48;;;;;;;8.46;100.00;100983.78;10211548;29;20060;-75
2022/04/15 17:38:56;;;;;;;8.48;7.88;;;;;;;8.45;100.00;100973.28;10233199;29;20040;-74
2022/04/15 17:43:58;;;;;;;9.10;8.45;;;;;;;8.34;100.00;100978.59;10214085;29;20052;-74
2022/04/15 17:49:00;;;;;;;7.78;7.18;;;;;;;8.45;100.00;100975.91;10229870;29;20454;-75
2022/04/15 17:54:02;;;;;;;9.18;8.48;;;;;;;8.55;100.00;100974.97;10231388;29;20071;-74
2022/04/15 17:59:04;;;;;;;7.72;7.18;;;;;;;8.34;100.00;100984.69;10227327;29;20044;-75
2022/04/15 18:04:09;;;;;;;7.47;6.97;;;;;;;8.29;100.00;100980.38;10195745;29;20413;-74
2022/04/15 18:09:11;;;;;;;7.00;6.47;;;;;;;8.36;100.00;100995.16;10209132;29;20131;-74
2022/04/15 18:14:13;;;;;;;7.45;6.95;;;;;;;8.46;99.76;100999.50;10225432;29;20051;-75
2022/04/15 18:19:15;;;;;;;7.88;7.18;;;;;;;8.44;100.00;101009.09;10225102;29;20509;-75
2022/04/15 18:24:17;;;;;;;8.27;7.68;;;;;;;8.34;100.00;101016.13;10209506;29;20154;-74
2022/04/15 18:29:19;;;;;;;8.00;7.40;;;;;;;8.26;100.00;101028.41;10225930;29;20122;-74
2022/04/15 18:34:23;;;;;;;7.50;6.97;;;;;;;8.35;100.00;101023.09;10226548;29;20044;-75
2022/04/15 18:39:25;;;;;;;9.40;8.75;;;;;;;8.31;100.00;101033.63;10208478;29;20071;-74
2022/04/15 18:44:27;;;;;;;9.23;8.60;;;;;;;8.17;100.00;101032.84;10225049;29;20458;-74
2022/04/15 18:55:09;;;;;;;9.38;8.68;;;;;;;8.17;100.00;101043.31;10224300;29;19929;-73
2022/04/15 19:00:15;;;;;;;10.88;10.07;;;;;;;8.10;100.00;101052.94;10225140;29;20056;-74
2022/04/15 19:05:17;;;;;;;11.70;10.80;;;;;;;8.02;100.00;101050.38;10192749;29;20091;-73
2022/04/15 19:10:19;;;;;;;11.60;10.70;;;;;;;8.04;100.00;101059.09;10209990;29;20043;-74
2022/04/15 19:15:20;;;;;;;11.35;10.55;;;;;;;8.11;100.00;101064.31;10226675;29;20075;-75
2022/04/15 19:20:22;;;;;;;11.20;10.23;;;;;;;8.14;100.00;101070.38;10225989;29;20104;-75
2022/04/15 19:25:25;;;;;;;15.52;14.32;;;;;;;8.17;100.00;101074.75;10222686;29;20044;-74
2022/04/15 19:30:27;;;;;;;16.17;14.98;;;;;;;8.14;100.00;101080.84;10213654;23;20076;-69
2022/04/15 19:35:28;;;;;;;17.00;15.70;;;;;;;7.98;100.00;101087.94;10176785;29;20403;-69
2022/04/15 19:40:31;;;;;;;16.40;14.93;;;;;;;7.74;100.00;101101.97;10190654;29;20175;-68
2022/04/15 19:45:33;;;;;;;16.40;15.10;;;;;;;7.69;100.00;101113.31;10215660;29;20134;-69
2022/04/15 19:50:35;;;;;;;17.00;15.68;;;;;;;7.41;100.00;101117.75;10215437;29;20207;-69
2022/04/15 19:55:36;;;;;;;14.70;13.60;;;;;;;7.39;100.00;101124.72;10214586;29;20055;-69
2022/04/15 20:06:07;;;;;;;13.05;11.60;;;;;;;7.36;98.94;101132.59;10214924;29;20054;-69
2022/04/15 20:11:09;;;;;;;14.98;13.88;;;;;;;7.00;100.00;101148.28;10181913;29;20048;-69
2022/04/15 20:16:11;;;;;;;13.55;12.45;;;;;;;7.05;100.00;101143.06;10213460;29;20060;-69
2022/04/15 20:21:13;;;;;;;13.60;12.30;;;;;;;7.03;100.00;101155.25;10214362;29;20059;-69
2022/04/15 20:26:14;;;;;;;15.57;14.27;;;;;;;6.98;100.00;101164.81;10213980;29;20079;-69
2022/04/15 20:31:16;;;;;;;17.25;15.95;;;;;;;6.85;100.00;101169.16;10214383;29;20095;-69
2022/04/15 20:36:18;;;;;;;18.88;17.27;;;;;;;6.77;100.00;101158.72;10213955;29;20130;-69
2022/04/15 20:41:20;;;;;;;20.60;18.73;;;;;;;6.86;100.00;101165.66;10213446;29;20040;-69
2022/04/15 20:46:22;;;;;;;23.92;21.90;;;;;;;6.68;100.00;101171.75;10214061;29;20052;-69
2022/04/15 20:51:24;;;;;;;25.42;22.05;;;;;;;6.59;100.00;101179.56;10196957;29;20110;-69
2022/04/15 20:56:25;;;;;;;24.73;22.25;;;;;;;6.57;99.60;101176.09;10213303;29;20054;-69
2022/04/15 21:01:27;;;;;;;27.40;22.30;;;;;;;6.47;99.41;101188.25;10213315;29;20111;-69
2022/04/15 21:06:29;;;;;;;25.75;23.13;;;;;;;6.55;99.36;101186.53;10214147;29;20078;-69
2022/04/15 21:11:30;;;;;;;23.35;21.13;;;;;;;6.62;98.41;101197.00;10213649;29;20048;-69
2022/04/15 21:16:33;;;;;;;30.50;23.05;;;;;;;6.56;98.52;101201.34;10197193;29;20111;-69
2022/04/15 21:21:35;;;;;;;24.42;22.20;;;;;;;6.58;98.45;101203.94;10196249;29;20067;-70
2022/04/15 21:26:36;;;;;;;31.58;23.02;;;;;;;6.48;98.24;101200.44;10214011;29;20106;-70
2022/04/15 21:31:38;;;;;;;29.42;23.48;;;;;;;6.38;99.46;101211.72;10218985;29;20040;-70
2022/04/15 21:36:42;;;;;;;26.75;22.60;;;;;;;6.40;98.59;101215.19;10220165;29;20044;-68
2022/04/15 21:41:43;;;;;;;22.30;19.95;;;;;;;6.39;97.49;101220.44;10220309;29;20090;-69
2022/04/15 21:46:45;;;;;;;22.38;20.27;;;;;;;6.36;97.44;101225.63;10202430;29;20059;-69
2022/04/15 21:57:13;;;;;;;26.65;21.48;;;;;;;6.43;96.72;101227.41;10220033;29;20040;-69
2022/04/15 22:02:16;;;;;;;24.65;21.80;;;;;;;6.28;98.07;101238.63;10218836;29;20098;-69
2022/04/15 22:07:20;;;;;;;25.45;22.38;;;;;;;6.41;96.13;101244.78;10218793;29;20063;-68
2022/04/15 22:12:21;;;;;;;25.27;20.98;;;;;;;6.44;94.39;101250.03;10218743;29;20425;-68
2022/04/15 22:17:23;;;;;;;30.25;23.10;;;;;;;6.05;95.94;101256.78;10218919;29;20052;-69
2022/04/15 22:22:25;;;;;;;28.48;21.80;;;;;;;6.13;95.10;101252.50;10219990;29;20099;-69
2022/04/15 22:27:27;;;;;;;28.92;20.17;;;;;;;6.19;93.81;101251.66;10201263;29;20048;-69
2022/04/15 22:32:29;;;;;;;30.48;21.85;;;;;;;6.20;93.35;101253.41;10218215;29;20079;-69
2022/04/15 22:37:32;;;;;;;24.05;20.73;;;;;;;6.23;91.90;101253.41;10218325;29;20048;-69
2022/04/15 22:42:34;;;;;;;29.98;21.40;;;;;;;6.23;91.88;101256.03;10216939;29;20068;-69
2022/04/15 22:47:43;;;;;;;25.98;20.38;;;;;;;6.25;91.33;101260.41;10200347;29;20114;-69
2022/04/15 22:52:44;;;;;;;24.60;20.45;;;;;;;6.07;91.36;101268.13;10200307;29;20486;-69
2022/04/15 22:57:46;;;;;;;24.58;20.33;;;;;;;6.21;90.09;101273.44;10216905;29;20048;-69
2022/04/15 23:02:47;;;;;;;26.83;18.73;;;;;;;5.98;92.51;101279.38;10199538;29;20154;-70
2022/04/15 23:07:49;;;;;;;25.48;20.25;;;;;;;6.02;92.60;101278.53;10217141;29;20047;-69
2022/04/15 23:12:51;;;;;;;23.08;20.33;;;;;;;6.16;91.97;101278.63;10198972;29;20055;-69
2022/04/15 23:17:52;;;;;;;26.08;20.50;;;;;;;6.26;89.89;101282.16;10216512;29;20476;-70
2022/04/15 23:22:54;;;;;;;21.10;18.67;;;;;;;6.16;89.58;101291.69;10215679;29;20055;-70
2022/04/15 23:27:55;;;;;;;20.70;18.48;;;;;;;6.20;88.82;101283.00;10215568;29;20107;-70